Time;durP1;ratioP1;P1;durP2;ratioP2;P2;SDS_P1;SDS_P2;PMS_P1;PMS_P2;Temp;Humidity;BMP_temperature;BMP_pressure;BME280_temperature;BME280_humidity;BME280_pressure;Samples;Min_cycle;Max_cycle;Signal;HPM_P1;HPM_P2
2020/12/23 00:00:33;;;;;;;16.52;9.57;;;;;;;8.40;87.25;98784.13;5011778;28;20022;-83
2020/12/23 00:02:59;;;;;;;19.48;11.32;;;;;;;8.31;87.25;98772.88;5012048;28;20034;-83
2020/12/23 00:05:24;;;;;;;20.17;8.90;;;;;;;8.40;87.28;98773.22;5012134;28;20386;-83
2020/12/23 00:07:49;;;;;;;17.40;9.13;;;;;;;8.40;87.06;98773.22;4994364;28;20026;-83
2020/12/23 00:10:15;;;;;;;13.25;7.63;;;;;;;8.44;87.16;98771.63;4994308;28;20026;-85
2020/12/23 00:12:40;;;;;;;23.92;9.35;;;;;;;8.35;87.13;98774.00;5012525;28;20030;-84
2020/12/23 00:15:07;;;;;;;19.02;9.85;;;;;;;8.41;87.10;98783.88;5010945;28;20041;-83
2020/12/23 00:17:34;;;;;;;19.63;8.77;;;;;;;8.41;87.11;98772.97;5012088;28;20033;-84
2020/12/23 00:19:59;;;;;;;17.25;10.13;;;;;;;8.39;87.11;98769.69;5011580;28;20057;-82
2020/12/23 00:22:24;;;;;;;20.60;9.45;;;;;;;8.38;86.90;98765.31;5012940;28;20046;-84
2020/12/23 00:24:50;;;;;;;18.25;8.60;;;;;;;8.43;87.22;98773.50;5010229;28;20546;-82
2020/12/23 00:27:18;;;;;;;19.83;10.15;;;;;;;8.37;87.45;98776.47;5012357;28;20041;-84
2020/12/23 00:29:44;;;;;;;14.85;9.77;;;;;;;8.32;87.44;98777.25;4995092;28;20128;-85
2020/12/23 00:32:09;;;;;;;20.90;10.45;;;;;;;8.38;87.48;98778.94;5012159;28;20105;-86
2020/12/23 00:34:35;;;;;;;19.27;10.02;;;;;;;8.38;87.27;98773.47;4974920;28;20026;-83
2020/12/23 00:37:01;;;;;;;18.10;9.57;;;;;;;8.33;87.18;98781.59;4974635;28;20387;-83
2020/12/23 00:39:27;;;;;;;20.25;10.35;;;;;;;8.32;87.29;98782.72;4974642;28;20383;-83
2020/12/23 00:41:52;;;;;;;19.63;9.45;;;;;;;8.25;87.27;98783.97;4990477;28;20030;-83
2020/12/23 00:44:18;;;;;;;22.95;9.68;;;;;;;8.16;87.20;98772.72;4991516;28;20041;-84
2020/12/23 00:46:44;;;;;;;13.77;8.57;;;;;;;8.12;87.30;98777.03;4990687;28;20029;-84
2020/12/23 00:49:10;;;;;;;14.20;7.90;;;;;;;8.11;87.21;98778.16;4974612;28;20121;-83
2020/12/23 00:51:36;;;;;;;16.95;8.90;;;;;;;8.11;86.94;98772.69;4991591;28;20117;-81
2020/12/23 00:54:01;;;;;;;16.50;9.45;;;;;;;8.11;86.92;98780.03;4974314;28;20031;-85
2020/12/23 00:56:27;;;;;;;15.23;9.90;;;;;;;8.08;87.12;98774.00;4974149;28;20026;-83
2020/12/23 00:58:52;;;;;;;13.77;7.97;;;;;;;8.01;87.25;98767.97;4991819;28;20038;-81
2020/12/23 01:01:18;;;;;;;15.00;9.77;;;;;;;7.98;87.59;98763.03;4991530;28;20080;-81
2020/12/23 01:03:44;;;;;;;16.50;7.93;;;;;;;8.05;87.77;98773.69;4992784;28;20034;-83
2020/12/23 01:06:11;;;;;;;15.77;8.68;;;;;;;8.01;87.65;98778.88;4991849;28;20022;-82
2020/12/23 01:08:37;;;;;;;15.25;7.95;;;;;;;8.01;87.71;98772.59;5009471;28;20026;-81
2020/12/23 01:11:06;;;;;;;18.80;9.52;;;;;;;7.98;87.56;98762.22;4992818;28;20038;-82
2020/12/23 01:13:32;;;;;;;13.25;8.10;;;;;;;7.96;87.56;98780.69;5010182;28;20047;-82
2020/12/23 01:15:58;;;;;;;13.88;8.25;;;;;;;7.91;87.42;98764.31;5010763;28;20156;-84
2020/12/23 01:18:23;;;;;;;18.35;9.65;;;;;;;7.96;87.80;98780.69;4994070;28;20113;-83
2020/12/23 01:20:49;;;;;;;12.23;7.53;;;;;;;7.78;87.58;98756.56;5009800;28;20497;-81
2020/12/23 01:23:14;;;;;;;16.98;7.47;;;;;;;7.89;87.85;98775.47;4993387;28;20037;-79
2020/12/23 01:25:40;;;;;;;13.23;7.65;;;;;;;7.95;87.79;98779.91;4993593;28;20037;-81
2020/12/23 01:28:05;;;;;;;16.83;8.98;;;;;;;7.90;87.75;98782.56;5010987;28;20030;-81
2020/12/23 01:30:30;;;;;;;12.02;7.32;;;;;;;7.93;87.26;98781.22;5009801;28;20033;-82
2020/12/23 01:32:56;;;;;;;13.32;8.35;;;;;;;7.93;87.03;98786.66;5010725;28;20034;-85
2020/12/23 01:35:21;;;;;;;17.10;7.90;;;;;;;7.95;87.18;98773.63;5009781;28;20470;-82
2020/12/23 01:37:46;;;;;;;14.25;7.85;;;;;;;7.94;87.24;98771.97;5010672;28;20077;-83
2020/12/23 01:40:12;;;;;;;9.25;6.75;;;;;;;7.92;87.33;98769.53;5011094;28;20060;-82
2020/12/23 01:42:38;;;;;;;12.13;7.18;;;;;;;7.91;87.33;98777.94;4993041;28;20041;-83
2020/12/23 01:45:05;;;;;;;13.20;7.50;;;;;;;7.87;87.35;98769.47;4993390;28;20022;-83
2020/12/23 01:47:32;;;;;;;12.75;8.27;;;;;;;7.91;86.90;98762.41;4993851;28;20479;-84
2020/12/23 01:49:58;;;;;;;14.07;6.90;;;;;;;7.96;86.98;98776.06;5011484;28;20018;-85
2020/12/23 01:52:23;;;;;;;10.80;6.88;;;;;;;7.94;86.95;98766.53;5011297;28;20482;-84
2020/12/23 01:54:50;;;;;;;13.95;7.40;;;;;;;7.88;87.16;98778.47;4993663;28;20018;-83
2020/12/23 01:57:16;;;;;;;12.95;6.68;;;;;;;7.84;87.42;98777.31;5011036;28;20434;-83
2020/12/23 01:59:46;;;;;;;10.68;7.13;;;;;;;7.82;87.46;98777.59;4994192;28;20028;-82
2020/12/23 02:02:31;;;;;;;12.82;6.43;;;;;;;7.77;88.19;98771.28;4996800;28;20032;-85
2020/12/23 02:04:58;;;;;;;12.43;7.03;;;;;;;7.75;87.73;98774.25;5014222;28;20109;-82
2020/12/23 02:07:24;;;;;;;15.38;8.43;;;;;;;7.77;87.21;98782.97;4996610;28;20045;-84
2020/12/23 02:09:52;;;;;;;12.85;7.05;;;;;;;7.77;87.86;98782.16;5014114;28;20084;-84
2020/12/23 02:12:17;;;;;;;9.98;6.47;;;;;;;7.73;87.85;98779.13;4996436;28;20040;-81
2020/12/23 02:14:43;;;;;;;9.27;5.05;;;;;;;7.78;86.98;98786.50;4995882;28;20773;-83
2020/12/23 02:17:09;;;;;;;6.95;4.70;;;;;;;7.78;86.51;98784.63;5013421;28;20087;-82
2020/12/23 02:19:49;;;;;;;8.75;5.43;;;;;;;7.81;86.11;98786.84;5014349;28;20113;-83
2020/12/23 02:22:35;;;;;;;7.13;5.25;;;;;;;7.85;85.65;98790.69;5013898;28;20030;-83
2020/12/23 02:25:01;;;;;;;6.50;4.30;;;;;;;7.84;84.74;98777.31;4995732;28;20136;-81
2020/12/23 02:27:27;;;;;;;8.00;4.20;;;;;;;7.82;84.93;98774.03;5013671;28;20488;-82
2020/12/23 02:29:56;;;;;;;7.65;5.03;;;;;;;7.91;85.21;98773.31;4995872;28;20052;-83
2020/12/23 02:32:22;;;;;;;6.80;4.28;;;;;;;7.89;84.98;98774.66;4996002;28;20030;-81
2020/12/23 02:34:49;;;;;;;10.73;5.82;;;;;;;7.87;85.17;98771.34;5013501;28;20029;-83
2020/12/23 02:37:15;;;;;;;8.85;5.75;;;;;;;7.79;84.77;98758.22;4995916;28;20037;-83
2020/12/23 02:39:43;;;;;;;6.32;4.03;;;;;;;7.79;85.10;98760.94;4995922;28;20084;-83
2020/12/23 02:42:09;;;;;;;7.35;4.20;;;;;;;7.79;84.65;98767.22;5013421;28;20022;-81
2020/12/23 02:44:36;;;;;;;6.50;3.83;;;;;;;7.81;84.96;98767.75;5013081;28;20052;-81
2020/12/23 02:47:09;;;;;;;5.45;3.72;;;;;;;7.73;84.75;98764.69;4995567;28;20112;-84
2020/12/23 02:49:35;;;;;;;6.00;4.03;;;;;;;7.77;84.19;98772.06;4997358;28;20042;-81
2020/12/23 02:52:00;;;;;;;6.07;3.22;;;;;;;7.83;84.21;98775.69;5013213;28;20032;-81
2020/12/23 02:54:26;;;;;;;5.30;3.40;;;;;;;7.80;83.92;98781.66;5013151;28;20030;-82
2020/12/23 02:56:52;;;;;;;4.82;2.85;;;;;;;7.80;82.77;98765.31;5013253;28;20026;-81
2020/12/23 02:59:18;;;;;;;7.07;3.78;;;;;;;7.87;82.91;98788.53;4995112;28;20036;-82
2020/12/23 03:01:44;;;;;;;5.38;3.95;;;;;;;7.83;82.68;98778.41;4995323;28;20026;-82
2020/12/23 03:04:09;;;;;;;3.13;2.60;;;;;;;7.80;82.44;98771.56;5012560;28;20383;-80
2020/12/23 03:06:35;;;;;;;7.55;3.35;;;;;;;7.77;82.60;98772.06;4995263;28;20029;-80
2020/12/23 03:09:04;;;;;;;3.53;2.55;;;;;;;7.82;83.19;98774.03;4994936;28;20026;-81
2020/12/23 03:11:29;;;;;;;4.15;3.05;;;;;;;7.87;82.94;98768.63;4994829;28;20483;-81
2020/12/23 03:13:54;;;;;;;5.10;3.40;;;;;;;7.87;83.10;98765.91;4994667;28;20103;-82
2020/12/23 03:16:20;;;;;;;3.88;2.95;;;;;;;7.84;83.16;98769.16;5012199;28;20475;-81
2020/12/23 03:18:45;;;;;;;3.78;2.80;;;;;;;7.87;82.89;98772.19;5012650;28;20022;-79
2020/12/23 03:21:11;;;;;;;6.45;3.28;;;;;;;7.82;82.95;98758.53;5011889;28;20113;-82
2020/12/23 03:23:36;;;;;;;3.88;2.80;;;;;;;7.85;82.91;98760.72;5011321;28;20640;-78
2020/12/23 03:26:03;;;;;;;4.32;3.15;;;;;;;7.82;83.26;98763.97;5012524;28;20025;-80
2020/12/23 03:28:29;;;;;;;6.30;3.58;;;;;;;7.81;83.31;98745.97;5013154;28;20439;-81
2020/12/23 03:30:54;;;;;;;6.20;3.85;;;;;;;7.75;83.25;98748.91;5015943;28;20030;-80
2020/12/23 03:33:20;;;;;;;6.45;3.47;;;;;;;7.81;83.26;98750.59;5015907;28;20117;-79
2020/12/23 03:35:46;;;;;;;5.57;3.42;;;;;;;7.79;82.96;98759.03;4995538;28;20025;-79
2020/12/23 03:38:11;;;;;;;6.68;4.05;;;;;;;7.81;83.60;98766.94;5012220;28;20022;-80
2020/12/23 03:40:37;;;;;;;4.82;3.22;;;;;;;7.79;83.57;98760.94;4994529;28;20022;-81
2020/12/23 03:43:03;;;;;;;5.53;3.40;;;;;;;7.76;83.50;98756.84;5012151;28;20534;-80
2020/12/23 03:45:28;;;;;;;4.50;2.55;;;;;;;7.77;83.60;98754.94;5012090;28;20113;-82
2020/12/23 03:47:53;;;;;;;5.95;3.33;;;;;;;7.76;83.48;98754.13;4990406;28;20453;-80
2020/12/23 03:50:19;;;;;;;5.72;3.38;;;;;;;7.78;84.21;98757.38;4974060;28;20034;-83
2020/12/23 03:52:45;;;;;;;4.85;2.78;;;;;;;7.86;83.68;98769.72;4974200;28;20053;-79
2020/12/23 03:55:11;;;;;;;4.70;3.03;;;;;;;7.87;83.92;98763.19;4986388;28;20026;-80
2020/12/23 03:57:37;;;;;;;5.03;3.28;;;;;;;7.86;84.01;98758.84;4977339;28;20026;-82
2020/12/23 04:00:05;;;;;;;4.80;3.30;;;;;;;7.87;83.97;98774.06;4995138;28;20088;-80
2020/12/23 04:02:30;;;;;;;7.40;3.78;;;;;;;7.78;83.90;98754.66;4994231;28;20026;-83
2020/12/23 04:04:56;;;;;;;7.70;3.78;;;;;;;7.75;83.67;98751.63;5011571;28;20029;-83
2020/12/23 04:07:21;;;;;;;6.38;3.83;;;;;;;7.82;84.61;98771.31;5010804;28;20057;-84
2020/12/23 04:09:46;;;;;;;5.57;3.65;;;;;;;7.81;84.05;98765.03;4994058;28;20026;-81
2020/12/23 04:12:12;;;;;;;6.25;3.35;;;;;;;7.86;84.48;98772.47;4991203;28;20106;-82
2020/12/23 04:14:37;;;;;;;4.63;3.50;;;;;;;7.82;84.35;98768.59;5008651;28;20060;-85
2020/12/23 04:17:02;;;;;;;5.05;3.60;;;;;;;7.85;84.02;98768.06;5027525;28;20034;-83
2020/12/23 04:19:28;;;;;;;4.70;3.25;;;;;;;7.89;84.73;98771.94;5012730;28;20084;-84
2020/12/23 04:21:53;;;;;;;6.00;3.30;;;;;;;7.89;85.38;98774.66;5012034;28;20036;-84
2020/12/23 04:24:19;;;;;;;6.75;3.85;;;;;;;7.94;85.35;98771.97;4994121;28;20033;-82
2020/12/23 04:26:44;;;;;;;8.85;3.70;;;;;;;7.98;85.24;98773.13;4994055;28;20120;-84
2020/12/23 04:29:09;;;;;;;6.22;4.80;;;;;;;7.99;85.89;98766.56;5011584;28;20030;-83
2020/12/23 04:31:35;;;;;;;6.00;4.05;;;;;;;8.15;85.69;98778.41;4993998;28;20030;-83
2020/12/23 04:34:00;;;;;;;8.18;4.78;;;;;;;8.16;85.91;98766.44;4994004;28;20029;-85
2020/12/23 04:36:25;;;;;;;8.02;5.10;;;;;;;8.16;86.03;98758.28;5027330;28;20033;-83
2020/12/23 04:38:51;;;;;;;8.35;4.53;;;;;;;8.26;85.61;98766.53;5028564;28;20022;-85
2020/12/23 04:41:16;;;;;;;7.50;4.60;;;;;;;8.24;85.76;98750.44;4995319;28;20102;-86
2020/12/23 04:43:42;;;;;;;9.13;5.22;;;;;;;8.33;85.72;98770.69;5018946;28;20033;-84
2020/12/23 04:46:10;;;;;;;10.13;5.57;;;;;;;8.33;85.70;98772.63;5032639;28;20486;-86
2020/12/23 04:48:38;;;;;;;9.80;4.72;;;;;;;8.36;85.89;98778.38;5051567;28;20527;-84
2020/12/23 04:51:04;;;;;;;6.35;4.28;;;;;;;8.24;83.12;98771.44;5052775;28;20029;-83
2020/12/23 04:53:30;;;;;;;5.28;3.60;;;;;;;8.17;83.78;98768.09;5035549;28;20078;-83
2020/12/23 04:55:56;;;;;;;6.55;4.00;;;;;;;8.21;83.92;98755.56;5052228;28;20603;-85
2020/12/23 04:58:23;;;;;;;9.90;5.38;;;;;;;8.34;84.57;98761.44;5032694;28;20025;-82
2020/12/23 05:00:49;;;;;;;5.93;4.03;;;;;;;8.42;84.01;98758.25;5031355;28;20026;-84
2020/12/23 05:03:15;;;;;;;10.00;4.70;;;;;;;8.40;83.84;98754.13;5030999;28;20482;-84
2020/12/23 05:05:40;;;;;;;9.25;5.60;;;;;;;8.36;83.38;98753.03;5021695;28;20036;-84
2020/12/23 05:08:06;;;;;;;6.80;5.45;;;;;;;8.44;82.93;98757.97;5013285;28;20032;-82
2020/12/23 05:10:31;;;;;;;7.85;4.65;;;;;;;8.53;82.06;98765.41;5013834;28;20479;-83
2020/12/23 05:12:57;;;;;;;12.25;5.93;;;;;;;8.57;81.83;98769.28;5027872;28;20125;-81
2020/12/23 05:15:23;;;;;;;9.07;5.68;;;;;;;8.55;81.39;98757.78;5010099;28;20038;-81
2020/12/23 05:17:50;;;;;;;13.30;4.95;;;;;;;8.57;81.58;98763.81;4999560;28;20036;-80
2020/12/23 05:20:16;;;;;;;11.13;5.32;;;;;;;8.55;81.65;98763.25;4991866;28;20049;-80
2020/12/23 05:22:47;;;;;;;8.77;5.50;;;;;;;8.58;81.52;98765.44;4973582;28;20018;-81
2020/12/23 05:25:16;;;;;;;9.45;5.30;;;;;;;8.58;81.19;98765.44;4973573;28;20026;-80
2020/12/23 05:27:42;;;;;;;8.73;5.20;;;;;;;8.61;81.23;98767.63;4990777;28;20045;-80
2020/12/23 05:30:09;;;;;;;9.07;4.68;;;;;;;8.57;81.05;98754.81;4973775;28;20026;-82
2020/12/23 05:32:40;;;;;;;7.32;5.03;;;;;;;8.60;81.33;98768.75;4991133;28;20030;-84
2020/12/23 05:35:05;;;;;;;12.18;6.15;;;;;;;8.56;81.25;98758.59;4996048;28;20037;-84
2020/12/23 05:37:31;;;;;;;8.88;5.45;;;;;;;8.51;81.16;98753.97;4977139;28;20026;-84
2020/12/23 05:39:59;;;;;;;7.30;5.03;;;;;;;8.63;80.94;98772.03;4994501;28;20018;-81
2020/12/23 05:42:26;;;;;;;8.48;5.35;;;;;;;8.61;81.04;98784.00;4994390;28;20034;-82
2020/12/23 05:44:55;;;;;;;9.25;5.22;;;;;;;8.59;80.94;98769.00;4994925;28;20034;-83
2020/12/23 05:47:25;;;;;;;9.85;6.05;;;;;;;8.67;80.20;98775.88;4977625;28;20037;-82
2020/12/23 05:49:53;;;;;;;9.75;6.13;;;;;;;8.67;80.66;98782.16;4983096;28;20035;-85
2020/12/23 05:52:21;;;;;;;10.35;6.35;;;;;;;8.70;80.64;98781.63;4995632;28;20065;-86
2020/12/23 05:54:51;;;;;;;9.80;6.10;;;;;;;8.74;80.49;98776.47;4992243;28;20092;-82
2020/12/23 05:57:16;;;;;;;11.48;5.78;;;;;;;8.69;80.33;98769.06;5014161;28;20033;-79
2020/12/23 05:59:42;;;;;;;10.77;5.22;;;;;;;8.69;80.33;98770.97;4996121;28;20026;-82
2020/12/23 06:02:12;;;;;;;8.05;5.32;;;;;;;8.69;81.03;98770.97;5012872;28;20022;-80
2020/12/23 06:04:42;;;;;;;11.00;5.53;;;;;;;8.73;80.68;98783.00;5012815;28;20033;-81
2020/12/23 06:07:07;;;;;;;11.05;6.32;;;;;;;8.71;81.07;98777.00;5013539;28;20126;-81
2020/12/23 06:09:47;;;;;;;10.48;6.15;;;;;;;8.73;80.59;98777.53;5012571;28;20112;-82
2020/12/23 06:12:21;;;;;;;10.70;6.28;;;;;;;8.61;80.79;98762.19;5013939;28;20026;-80
2020/12/23 06:14:55;;;;;;;11.95;5.95;;;;;;;8.72;80.87;98784.06;5024503;28;20510;-81
2020/12/23 06:17:25;;;;;;;9.70;6.05;;;;;;;8.72;80.90;98775.91;5015880;28;20048;-78
2020/12/23 06:19:55;;;;;;;9.18;5.55;;;;;;;8.68;81.30;98772.88;5032458;28;21106;-83
2020/12/23 06:22:23;;;;;;;7.93;5.55;;;;;;;8.64;81.23;98781.84;5015266;28;20429;-83
2020/12/23 06:24:48;;;;;;;9.23;6.07;;;;;;;8.64;81.25;98788.13;5031902;28;20017;-81
2020/12/23 06:27:14;;;;;;;10.07;6.65;;;;;;;8.61;81.71;98777.75;5016625;28;20026;-83
2020/12/23 06:29:42;;;;;;;10.68;5.93;;;;;;;8.61;81.72;98769.56;5034742;28;20024;-85
2020/12/23 06:32:17;;;;;;;10.60;5.63;;;;;;;8.51;81.42;98775.78;5027885;28;20034;-86
2020/12/23 06:34:43;;;;;;;10.13;5.53;;;;;;;8.48;81.09;98778.19;5019210;28;20045;-82
2020/12/23 06:37:19;;;;;;;10.15;5.65;;;;;;;8.40;80.86;98774.03;5027533;28;20061;-83
2020/12/23 06:39:46;;;;;;;6.32;4.78;;;;;;;8.28;80.70;98764.41;5005431;28;20564;-84
2020/12/23 06:42:11;;;;;;;6.82;4.72;;;;;;;8.28;80.89;98753.50;5025015;28;20040;-82
2020/12/23 06:44:43;;;;;;;12.07;5.97;;;;;;;8.29;81.22;98761.44;5025583;28;20018;-82
2020/12/23 06:47:19;;;;;;;8.07;4.43;;;;;;;8.20;81.77;98752.06;5013695;28;20030;-83
2020/12/23 06:49:59;;;;;;;8.60;6.00;;;;;;;8.21;82.05;98761.03;5028308;28;20059;-84
2020/12/23 06:52:24;;;;;;;10.75;5.25;;;;;;;8.27;82.46;98766.25;5017289;28;20037;-83
2020/12/23 06:55:08;;;;;;;7.40;4.68;;;;;;;8.31;82.85;98751.06;5032552;28;20084;-80
2020/12/23 06:57:39;;;;;;;9.45;5.15;;;;;;;8.35;82.65;98763.09;5041676;28;20040;-82
2020/12/23 07:00:17;;;;;;;10.10;5.15;;;;;;;8.36;82.95;98753.84;5039254;28;20072;-85
2020/12/23 07:02:44;;;;;;;8.40;5.25;;;;;;;8.47;82.82;98766.47;4998354;28;20018;-86
2020/12/23 07:05:11;;;;;;;7.22;4.75;;;;;;;8.44;83.16;98756.09;5025463;28;20021;-86
2020/12/23 07:07:38;;;;;;;6.68;5.18;;;;;;;8.49;83.00;98758.84;5017179;28;20060;-86
2020/12/23 07:10:21;;;;;;;9.48;5.88;;;;;;;8.58;82.80;98767.38;5014305;28;20368;-87
2020/12/23 07:13:00;;;;;;;8.35;4.72;;;;;;;8.47;82.58;98761.00;5016400;28;20059;-84
2020/12/23 07:15:33;;;;;;;8.88;4.45;;;;;;;8.43;82.44;98769.97;5034518;28;20026;-85
2020/12/23 07:18:11;;;;;;;7.65;4.93;;;;;;;8.44;82.53;98764.25;5011892;28;20030;-85
2020/12/23 07:21:02;;;;;;;9.88;5.50;;;;;;;8.45;82.13;98779.53;5020300;28;20029;-86
2020/12/23 07:23:30;;;;;;;8.10;4.95;;;;;;;8.40;81.86;98776.75;5035154;28;20037;-87
2020/12/23 07:25:59;;;;;;;6.65;4.88;;;;;;;8.37;82.25;98771.84;5034411;28;20025;-86
2020/12/23 07:28:39;;;;;;;7.50;5.07;;;;;;;8.56;81.12;98781.25;5016081;28;20036;-85
2020/12/23 07:31:06;;;;;;;6.18;4.55;;;;;;;8.76;81.38;98779.75;5008555;28;20038;-86
2020/12/23 07:33:33;;;;;;;8.30;4.85;;;;;;;8.52;81.23;98768.41;5021473;28;20022;-85
2020/12/23 07:36:01;;;;;;;10.02;5.40;;;;;;;8.49;81.71;98771.63;5019102;28;20463;-85
2020/12/23 07:38:34;;;;;;;9.43;4.30;;;;;;;8.40;82.12;98778.66;5027110;28;20044;-87
2020/12/23 07:41:01;;;;;;;10.68;5.18;;;;;;;8.44;82.29;98777.91;5023061;28;20010;-87
2020/12/23 07:43:28;;;;;;;6.75;4.45;;;;;;;8.46;81.96;98785.78;5024793;28;20040;-86
2020/12/23 07:45:54;;;;;;;9.52;5.90;;;;;;;8.49;81.97;98786.09;5039531;28;20026;-87
2020/12/23 07:48:21;;;;;;;7.65;5.05;;;;;;;8.50;81.46;98779.56;5024432;28;20032;-85
2020/12/23 07:50:49;;;;;;;7.07;4.88;;;;;;;8.53;81.39;98780.94;5021550;28;20021;-85
2020/12/23 07:53:18;;;;;;;6.85;5.50;;;;;;;8.66;81.21;98779.69;5017369;28;20029;-87
2020/12/23 07:55:48;;;;;;;10.00;6.32;;;;;;;8.65;81.30;98780.75;5017526;28;20084;-86
2020/12/23 07:58:15;;;;;;;8.07;5.15;;;;;;;8.61;81.31;98789.47;5034668;28;20052;-85
2020/12/23 08:00:44;;;;;;;9.27;4.75;;;;;;;8.42;81.07;98765.63;5020423;28;20044;-85
2020/12/23 08:03:10;;;;;;;7.00;4.93;;;;;;;8.43;80.76;98789.88;5030710;28;20022;-84
2020/12/23 08:05:35;;;;;;;8.43;4.80;;;;;;;8.40;80.88;98786.84;5031443;28;20026;-85
2020/12/23 08:08:01;;;;;;;7.32;5.03;;;;;;;8.34;80.28;98785.97;5015093;28;20040;-87
2020/12/23 08:10:26;;;;;;;7.68;4.20;;;;;;;8.37;80.17;98782.75;5015165;28;20045;-84
2020/12/23 08:13:03;;;;;;;7.03;3.95;;;;;;;8.41;80.57;98792.03;5015956;28;20033;-86
2020/12/23 08:15:30;;;;;;;7.78;3.63;;;;;;;8.46;80.46;98789.34;5015380;28;20033;-87
2020/12/23 08:18:04;;;;;;;6.53;4.47;;;;;;;8.50;80.17;98795.09;5014841;28;20029;-87
2020/12/23 08:20:31;;;;;;;5.20;3.80;;;;;;;8.50;79.90;98786.91;5031607;28;20145;-85
2020/12/23 08:22:57;;;;;;;5.30;4.13;;;;;;;8.52;79.59;98787.50;5015149;28;20026;-87
2020/12/23 08:25:24;;;;;;;10.30;3.75;;;;;;;8.48;79.04;98783.66;5032164;28;20041;-84
2020/12/23 08:27:53;;;;;;;6.88;3.97;;;;;;;8.46;79.09;98781.16;5033618;28;20021;-87
2020/12/23 08:30:23;;;;;;;7.97;4.53;;;;;;;8.41;79.37;98772.97;5019705;28;20076;-87
2020/12/23 08:33:16;;;;;;;7.07;4.63;;;;;;;8.49;79.33;98774.38;5023603;28;20029;-85
2020/12/23 08:35:43;;;;;;;6.22;3.92;;;;;;;8.46;79.75;98774.88;5018549;28;20113;-86
2020/12/23 08:38:16;;;;;;;9.85;5.20;;;;;;;8.40;79.43;98760.41;5034473;28;20040;-87
2020/12/23 08:40:46;;;;;;;5.53;4.13;;;;;;;8.55;79.00;98779.59;5035023;28;20036;-86
2020/12/23 08:43:19;;;;;;;6.88;4.00;;;;;;;8.59;78.48;98777.16;5034343;28;20049;-87
2020/12/23 08:45:49;;;;;;;8.30;3.90;;;;;;;8.54;78.02;98767.06;5017820;28;20033;-86
2020/12/23 08:48:21;;;;;;;6.85;4.70;;;;;;;8.56;78.02;98780.44;5016957;28;20053;-86
2020/12/23 08:51:04;;;;;;;7.78;3.72;;;;;;;8.60;77.82;98770.66;5036319;28;20041;-85
2020/12/23 08:53:37;;;;;;;8.02;3.85;;;;;;;8.68;77.65;98772.06;5034446;28;20128;-87
2020/12/23 08:56:22;;;;;;;10.90;4.82;;;;;;;8.75;77.78;98767.19;5037252;28;20029;-86
2020/12/23 08:59:00;;;;;;;6.18;3.72;;;;;;;8.71;77.15;98771.53;5033672;28;20029;-87
2020/12/23 09:01:27;;;;;;;5.78;4.68;;;;;;;8.77;77.30;98771.28;5034019;28;20483;-87
2020/12/23 09:04:08;;;;;;;4.97;4.03;;;;;;;8.77;76.87;98771.28;5003575;28;20037;-88
2020/12/23 09:06:44;;;;;;;9.60;3.85;;;;;;;8.80;76.97;98759.84;5007544;28;20038;-86
2020/12/23 09:09:10;;;;;;;10.90;4.28;;;;;;;8.80;77.11;98764.50;5016732;28;20063;-86
2020/12/23 09:11:43;;;;;;;4.50;4.10;;;;;;;8.94;77.29;98771.13;5023917;28;20029;-86
2020/12/23 09:14:28;;;;;;;7.88;4.40;;;;;;;8.92;77.25;98768.66;5031609;28;20053;-88
2020/12/23 09:17:04;;;;;;;6.80;4.22;;;;;;;8.77;76.77;98756.84;5020955;28;20038;-86
2020/12/23 09:19:46;;;;;;;;;;;;;;;8.87;77.16;98768.63;5003552;28;20463;-86
2020/12/23 09:22:22;;;;;;;9.13;3.88;;;;;;;8.85;77.18;98781.72;5009427;28;19941;-88
2020/12/23 09:24:47;;;;;;;7.03;3.95;;;;;;;8.79;77.28;98762.84;5018184;28;20101;-86
2020/12/23 09:27:24;;;;;;;6.80;4.28;;;;;;;8.83;77.20;98770.25;5017622;28;20049;-87
2020/12/23 09:29:51;;;;;;;6.50;4.55;;;;;;;8.81;76.98;98768.84;5034320;28;20018;-86
2020/12/23 09:32:16;;;;;;;15.07;6.60;;;;;;;8.84;77.18;98760.97;5018754;28;20029;-87
2020/12/23 09:34:41;;;;;;;9.63;5.40;;;;;;;8.84;77.43;98752.78;5032893;28;20121;-87
2020/12/23 09:37:07;;;;;;;10.13;7.50;;;;;;;8.97;77.38;98748.75;5012744;28;20037;-85
2020/12/23 09:39:39;;;;;;;7.10;4.57;;;;;;;9.01;77.15;98756.16;5006894;28;20077;-86
2020/12/23 09:42:07;;;;;;;6.97;4.60;;;;;;;9.00;76.82;98764.59;5022075;28;20054;-85
2020/12/23 09:44:37;;;;;;;7.68;5.28;;;;;;;8.90;76.93;98748.16;5004424;28;20033;-86
2020/12/23 09:47:03;;;;;;;8.32;4.68;;;;;;;8.82;77.24;98729.59;5021924;28;20021;-86
2020/12/23 09:49:30;;;;;;;7.13;4.10;;;;;;;8.85;77.63;98739.97;5017097;28;20002;-88
2020/12/23 09:51:55;;;;;;;7.50;4.65;;;;;;;8.88;77.33;98728.53;5034244;28;20072;-85
2020/12/23 09:54:21;;;;;;;6.25;3.42;;;;;;;8.94;77.57;98733.75;5017340;28;20009;-86
2020/12/23 09:56:55;;;;;;;8.63;4.18;;;;;;;8.97;77.52;98732.38;5015224;28;20022;-85
2020/12/23 09:59:21;;;;;;;5.20;3.65;;;;;;;9.07;77.45;98727.00;5035530;28;20176;-85
2020/12/23 10:01:47;;;;;;;8.55;4.97;;;;;;;9.12;77.20;98735.19;5029358;28;20022;-86
2020/12/23 10:04:13;;;;;;;4.85;3.97;;;;;;;9.14;76.97;98733.03;5020361;28;20018;-86
2020/12/23 10:06:39;;;;;;;11.40;4.22;;;;;;;9.15;77.33;98712.81;5015054;28;20028;-86
2020/12/23 10:09:06;;;;;;;9.98;4.60;;;;;;;9.34;77.47;98716.72;5015247;28;20038;-86
2020/12/23 10:11:31;;;;;;;7.15;3.80;;;;;;;9.45;77.18;98717.56;4999615;28;20034;-85
2020/12/23 10:13:57;;;;;;;7.93;4.30;;;;;;;9.51;76.83;98713.75;5016212;28;20049;-85
2020/12/23 10:16:30;;;;;;;6.32;3.63;;;;;;;9.61;76.65;98721.97;5031538;28;20076;-85
2020/12/23 10:18:55;;;;;;;7.82;3.40;;;;;;;9.74;76.40;98721.47;4995659;28;20045;-84
2020/12/23 10:21:23;;;;;;;7.30;4.30;;;;;;;9.74;76.62;98720.63;5010494;28;20023;-86
2020/12/23 10:23:48;;;;;;;5.88;3.60;;;;;;;9.83;76.10;98713.53;5013603;28;20030;-86
2020/12/23 10:26:14;;;;;;;5.45;3.72;;;;;;;9.87;75.89;98720.09;4997544;28;20553;-87
2020/12/23 10:28:40;;;;;;;6.65;3.45;;;;;;;9.89;75.91;98713.28;5014302;28;20014;-85
2020/12/23 10:31:07;;;;;;;7.13;3.58;;;;;;;9.90;75.68;98703.19;5011060;28;20037;-85
2020/12/23 10:33:36;;;;;;;6.47;3.83;;;;;;;9.85;75.45;98698.50;5016300;28;20172;-86
2020/12/23 10:36:02;;;;;;;6.10;3.80;;;;;;;9.85;74.29;98709.44;5017177;28;20430;-86
2020/12/23 10:38:29;;;;;;;6.53;3.92;;;;;;;9.69;74.74;98702.31;5015698;28;20022;-85
2020/12/23 10:40:57;;;;;;;6.70;4.05;;;;;;;9.62;74.85;98690.81;5016954;28;20053;-87
2020/12/23 10:43:23;;;;;;;8.23;4.68;;;;;;;9.64;75.38;98696.84;5014347;28;20030;-87
2020/12/23 10:45:49;;;;;;;6.65;3.78;;;;;;;9.76;75.55;98691.13;4996459;28;20121;-84
2020/12/23 10:48:15;;;;;;;8.10;3.80;;;;;;;9.67;74.99;98694.41;5029542;28;20114;-86
2020/12/23 10:50:40;;;;;;;10.35;4.93;;;;;;;9.49;75.13;98681.25;4997374;28;20029;-86
2020/12/23 10:53:06;;;;;;;8.68;4.97;;;;;;;9.53;74.95;98682.34;5013818;28;20033;-86
2020/12/23 10:55:31;;;;;;;9.48;3.50;;;;;;;9.59;75.40;98683.19;5013416;28;20045;-86
2020/12/23 10:57:57;;;;;;;6.53;4.35;;;;;;;9.53;74.12;98687.81;5009207;28;20031;-87
2020/12/23 11:00:22;;;;;;;7.97;4.50;;;;;;;9.37;74.55;98691.59;4993909;28;20058;-86
2020/12/23 11:02:48;;;;;;;6.82;4.75;;;;;;;9.34;75.03;98683.94;4997935;28;20391;-86
2020/12/23 11:05:14;;;;;;;7.72;4.63;;;;;;;9.25;75.38;98690.19;5031375;28;20582;-86
2020/12/23 11:07:39;;;;;;;9.23;4.90;;;;;;;9.22;75.58;98680.63;4997548;28;20130;-88
2020/12/23 11:10:04;;;;;;;9.38;4.30;;;;;;;9.26;75.54;98676.28;5014675;28;20034;-86
2020/12/23 11:12:30;;;;;;;7.93;5.07;;;;;;;9.32;76.12;98666.19;4997573;28;20101;-85
2020/12/23 11:14:55;;;;;;;8.38;4.65;;;;;;;9.46;76.27;98681.78;5013931;28;20042;-86
2020/12/23 11:17:21;;;;;;;6.70;4.28;;;;;;;9.61;75.86;98673.66;4998811;28;20545;-86
2020/12/23 11:19:47;;;;;;;9.77;5.45;;;;;;;9.68;75.67;98674.16;5014495;28;20026;-86
2020/12/23 11:22:13;;;;;;;6.60;5.05;;;;;;;9.74;75.26;98672.28;5013059;28;20072;-86
2020/12/23 11:24:38;;;;;;;6.50;4.05;;;;;;;9.81;75.22;98666.53;5013697;28;20042;-86
2020/12/23 11:27:04;;;;;;;8.05;4.97;;;;;;;9.75;75.32;98662.16;5013805;28;20045;-85
2020/12/23 11:29:29;;;;;;;8.05;4.50;;;;;;;9.81;75.09;98663.78;4996834;28;20379;-85
2020/12/23 11:31:55;;;;;;;8.13;5.18;;;;;;;9.78;74.74;98664.34;4995056;28;20073;-83
2020/12/23 11:34:20;;;;;;;11.88;5.47;;;;;;;9.75;75.11;98667.63;5010524;28;20120;-85
2020/12/23 11:36:46;;;;;;;9.95;6.10;;;;;;;9.69;74.99;98653.16;5010924;28;20040;-86
2020/12/23 11:39:11;;;;;;;10.98;6.05;;;;;;;9.63;75.31;98646.88;5011137;28;20030;-84
2020/12/23 11:41:36;;;;;;;8.60;4.88;;;;;;;9.69;75.85;98656.69;5010161;28;20040;-85